Time;durP1;ratioP1;P1;durP2;ratioP2;P2;SDS_P1;SDS_P2;PMS_P1;PMS_P2;Temp;Humidity;BMP_temperature;BMP_pressure;BME280_temperature;BME280_humidity;BME280_pressure;Samples;Min_cycle;Max_cycle;Signal;HPM_P1;HPM_P2
2023/05/05 00:00:51;;;;;;;0.70;0.70;;;13.00;99.10;;;;;;5053637;28;20439;-70
2023/05/05 00:03:19;;;;;;;1.23;1.03;;;13.00;98.90;;;;;;5053777;28;20420;-69
2023/05/05 00:05:46;;;;;;;2.00;1.90;;;13.00;98.70;;;;;;5053596;28;20525;-70
2023/05/05 00:08:11;;;;;;;0.70;0.70;;;13.00;98.80;;;;;;5053561;28;20779;-70
2023/05/05 00:10:37;;;;;;;0.80;0.80;;;12.90;98.70;;;;;;5053831;28;20397;-70
2023/05/05 00:13:02;;;;;;;0.70;0.70;;;12.80;98.90;;;;;;5053483;28;20169;-70
2023/05/05 00:15:28;;;;;;;1.17;1.03;;;12.80;98.90;;;;;;5053406;28;20718;-70
2023/05/05 00:17:54;;;;;;;0.90;0.90;;;12.90;99.10;;;;;;5053245;28;20638;-70
2023/05/05 00:20:20;;;;;;;2.07;1.53;;;12.80;98.90;;;;;;5053432;28;20212;-70
2023/05/05 00:22:45;;;;;;;0.80;0.70;;;12.70;99.10;;;;;;5053517;28;20192;-70
2023/05/05 00:25:11;;;;;;;1.33;1.13;;;12.60;99.50;;;;;;5053368;28;20196;-69
2023/05/05 00:27:37;;;;;;;0.97;0.97;;;12.50;99.90;;;;;;5053177;28;20207;-70
2023/05/05 00:30:02;;;;;;;1.30;1.20;;;12.40;99.90;;;;;;5053405;28;20220;-70
2023/05/05 00:32:28;;;;;;;1.73;1.10;;;12.30;99.90;;;;;;5053382;28;20557;-70
2023/05/05 00:34:54;;;;;;;0.60;0.60;;;12.40;99.90;;;;;;5053043;28;20461;-70
2023/05/05 00:37:19;;;;;;;1.37;1.37;;;12.40;99.90;;;;;;5052996;28;20193;-69
2023/05/05 00:39:45;;;;;;;1.80;1.10;;;12.30;99.90;;;;;;5053227;28;20693;-69
2023/05/05 00:42:11;;;;;;;1.13;0.83;;;12.30;99.90;;;;;;5053082;28;20177;-70
2023/05/05 00:44:40;;;;;;;0.73;0.70;;;12.30;99.90;;;;;;5053001;28;20170;-70
2023/05/05 00:47:07;;;;;;;6.07;2.10;;;12.20;99.90;;;;;;5052968;28;20166;-70
2023/05/05 00:49:34;;;;;;;1.33;1.33;;;12.10;99.90;;;;;;5052983;28;20432;-70
2023/05/05 00:52:00;;;;;;;0.80;0.80;;;12.10;99.90;;;;;;5053058;28;20487;-70
2023/05/05 00:54:26;;;;;;;0.80;0.80;;;12.10;99.90;;;;;;5053008;28;20451;-70
2023/05/05 00:56:52;;;;;;;0.60;0.60;;;12.00;99.90;;;;;;5052727;28;20464;-70
2023/05/05 00:59:18;;;;;;;1.47;1.37;;;11.90;99.90;;;;;;5053034;28;20893;-70
2023/05/05 01:01:44;;;;;;;1.17;1.07;;;11.80;99.90;;;;;;5053155;28;20174;-70
2023/05/05 01:04:10;;;;;;;1.00;0.90;;;11.80;99.90;;;;;;5053129;28;20265;-70
2023/05/05 01:07:02;;;;;;;0.70;0.67;;;11.80;99.90;;;;;;5052892;28;20452;-71
2023/05/05 01:09:33;;;;;;;0.40;0.40;;;11.90;99.90;;;;;;5053080;28;20167;-70
2023/05/05 01:11:59;;;;;;;1.17;0.87;;;11.90;99.90;;;;;;5056767;28;20405;-71
2023/05/05 01:14:30;;;;;;;0.93;0.93;;;11.90;99.90;;;;;;5056687;28;20454;-70
2023/05/05 01:16:59;;;;;;;0.63;0.63;;;11.90;99.90;;;;;;5056714;28;20190;-70
2023/05/05 01:19:31;;;;;;;0.70;0.70;;;12.00;99.90;;;;;;5056746;28;20428;-70
2023/05/05 01:22:01;;;;;;;1.23;1.23;;;11.90;99.90;;;;;;5056617;28;20450;-70
2023/05/05 01:24:38;;;;;;;2.27;2.10;;;11.80;99.90;;;;;;5056788;28;20736;-71
2023/05/05 01:27:29;;;;;;;0.50;0.50;;;11.80;99.90;;;;;;5056358;28;20389;-70
2023/05/05 01:30:13;;;;;;;0.40;0.40;;;11.80;99.90;;;;;;5056670;28;20405;-70
2023/05/05 01:32:43;;;;;;;0.60;0.60;;;11.90;99.90;;;;;;5056646;28;20408;-70
2023/05/05 01:35:18;;;;;;;18.97;1.43;;;11.80;99.90;;;;;;5056498;28;20456;-69
2023/05/05 01:38:04;;;;;;;2.10;1.90;;;11.70;99.90;;;;;;5056193;28;20408;-70
2023/05/05 01:40:42;;;;;;;1.23;1.17;;;11.60;99.90;;;;;;5056525;28;20403;-70
2023/05/05 01:43:11;;;;;;;0.83;0.83;;;11.60;99.90;;;;;;5056543;28;20402;-70
2023/05/05 01:45:38;;;;;;;0.90;0.90;;;11.70;99.90;;;;;;5056310;28;20503;-70
2023/05/05 01:48:06;;;;;;;1.33;0.80;;;11.60;99.90;;;;;;5055997;28;20492;-70
2023/05/05 01:50:33;;;;;;;0.80;0.80;;;11.70;99.90;;;;;;5056026;28;20850;-71
2023/05/05 01:53:02;;;;;;;0.50;0.50;;;11.70;99.90;;;;;;5056114;28;20397;-70
2023/05/05 01:55:29;;;;;;;0.60;0.60;;;11.60;99.90;;;;;;5055954;28;20432;-70
2023/05/05 01:57:57;;;;;;;1.13;1.00;;;11.50;99.90;;;;;;5055847;28;20392;-70
2023/05/05 02:00:24;;;;;;;1.40;1.20;;;11.60;99.90;;;;;;5055837;28;20412;-70
2023/05/05 02:02:52;;;;;;;0.50;0.50;;;11.60;99.90;;;;;;5055936;28;20401;-70
2023/05/05 02:05:20;;;;;;;0.80;0.80;;;11.70;99.90;;;;;;5055807;28;20429;-70
2023/05/05 02:07:47;;;;;;;0.40;0.40;;;11.70;99.90;;;;;;5055663;28;20415;-70
2023/05/05 02:10:13;;;;;;;2.87;0.93;;;11.70;99.90;;;;;;5055751;28;20404;-70
2023/05/05 02:12:41;;;;;;;1.23;1.23;;;11.80;99.90;;;;;;5055879;28;20397;-70
2023/05/05 02:15:09;;;;;;;1.50;1.40;;;11.90;99.90;;;;;;5055547;28;20502;-70
2023/05/05 02:17:35;;;;;;;0.80;0.80;;;12.00;99.90;;;;;;5055610;28;20450;-69
2023/05/05 02:20:01;;;;;;;1.17;1.17;;;12.00;99.90;;;;;;5055509;28;20404;-70
2023/05/05 02:22:27;;;;;;;2.67;2.47;;;12.10;99.90;;;;;;5055538;28;20170;-70
2023/05/05 02:24:54;;;;;;;0.47;0.47;;;12.20;99.90;;;;;;5055431;28;20904;-69
2023/05/05 02:27:23;;;;;;;2.30;2.13;;;12.20;99.90;;;;;;5055404;28;20796;-70
2023/05/05 02:30:00;;;;;;;1.40;1.30;;;12.20;99.90;;;;;;5055359;28;20454;-70
2023/05/05 02:32:40;;;;;;;0.50;0.50;;;12.30;99.90;;;;;;5055773;28;20399;-71
2023/05/05 02:35:13;;;;;;;0.80;0.80;;;12.30;99.90;;;;;;5055713;28;20460;-69
2023/05/05 02:37:47;;;;;;;0.93;0.93;;;12.20;99.90;;;;;;5055132;28;20442;-69
2023/05/05 02:40:15;;;;;;;0.80;0.80;;;12.20;99.90;;;;;;5055432;28;20393;-70
2023/05/05 02:42:45;;;;;;;0.63;0.63;;;12.40;99.90;;;;;;5055172;28;20406;-70
2023/05/05 02:45:17;;;;;;;0.60;0.60;;;12.50;99.90;;;;;;5054992;28;20424;-70
2023/05/05 02:47:42;;;;;;;10.00;2.53;;;12.50;99.90;;;;;;5054889;28;20419;-70
2023/05/05 02:50:08;;;;;;;1.17;1.17;;;12.50;99.90;;;;;;5054934;28;20432;-70
2023/05/05 02:52:35;;;;;;;1.03;1.03;;;12.60;99.90;;;;;;5055139;28;20534;-70
2023/05/05 02:55:02;;;;;;;2.70;1.10;;;12.70;99.90;;;;;;5054722;28;20460;-70
2023/05/05 02:57:47;;;;;;;1.33;1.23;;;12.70;99.90;;;;;;5054887;28;20407;-70
2023/05/05 03:00:18;;;;;;;0.60;0.60;;;12.60;99.90;;;;;;5054927;28;20393;-70
2023/05/05 03:03:15;;;;;;;1.67;1.57;;;12.70;99.90;;;;;;5054911;28;20499;-70
2023/05/05 03:05:57;;;;;;;0.53;0.50;;;12.70;99.90;;;;;;5054639;28;20917;-70
2023/05/05 03:08:41;;;;;;;3.23;1.70;;;12.70;99.90;;;;;;5054700;28;20971;-70
2023/05/05 03:11:59;;;;;;;1.40;1.30;;;12.70;99.90;;;;;;5054727;28;20400;-69
2023/05/05 03:14:28;;;;;;;1.43;1.33;;;12.80;99.90;;;;;;5038177;28;20499;-70
2023/05/05 03:16:55;;;;;;;0.97;0.70;;;12.80;99.90;;;;;;5054211;28;20924;-70
2023/05/05 03:19:22;;;;;;;1.87;1.77;;;12.80;99.90;;;;;;5053819;28;20419;-71
2023/05/05 03:21:48;;;;;;;0.83;0.80;;;12.80;99.90;;;;;;5053547;28;20397;-70
2023/05/05 03:24:18;;;;;;;2.10;1.00;;;12.90;99.90;;;;;;5054330;28;20410;-70
2023/05/05 03:26:46;;;;;;;1.37;1.30;;;13.00;99.90;;;;;;5054077;28;20429;-70
2023/05/05 03:29:12;;;;;;;2.20;2.10;;;12.90;99.90;;;;;;5054207;28;20818;-70
2023/05/05 03:31:38;;;;;;;1.60;1.50;;;12.90;99.90;;;;;;5054228;28;20922;-70
2023/05/05 03:34:05;;;;;;;1.27;1.17;;;12.90;99.90;;;;;;5053631;28;20538;-70
2023/05/05 03:36:31;;;;;;;0.80;0.80;;;12.90;99.90;;;;;;5053962;28;20562;-71
2023/05/05 03:38:56;;;;;;;0.67;0.67;;;12.90;99.90;;;;;;5054024;28;20436;-69
2023/05/05 03:41:23;;;;;;;1.57;1.00;;;12.90;99.90;;;;;;5054156;28;20484;-70
2023/05/05 03:43:49;;;;;;;1.17;1.17;;;12.90;99.90;;;;;;5053916;28;20460;-70
2023/05/05 03:46:15;;;;;;;1.73;1.63;;;12.90;99.90;;;;;;5053936;28;20428;-69
2023/05/05 03:48:41;;;;;;;1.00;1.00;;;12.90;99.90;;;;;;5053690;28;20408;-70
2023/05/05 03:51:07;;;;;;;9.63;1.17;;;12.80;99.90;;;;;;5053916;28;20500;-69
2023/05/05 03:53:33;;;;;;;1.60;1.60;;;12.80;99.90;;;;;;5053835;28;20879;-70
2023/05/05 03:55:59;;;;;;;3.00;2.77;;;13.00;99.90;;;;;;5053647;28;20427;-70
2023/05/05 03:58:25;;;;;;;1.17;1.17;;;13.10;99.90;;;;;;5053602;28;20483;-70
2023/05/05 04:00:51;;;;;;;1.90;1.80;;;13.00;99.90;;;;;;5053721;28;20896;-70
2023/05/05 04:03:16;;;;;;;0.83;0.83;;;13.10;99.90;;;;;;5053965;28;20400;-70
2023/05/05 04:05:42;;;;;;;0.40;0.40;;;13.20;99.90;;;;;;5053683;28;20276;-69
2023/05/05 04:08:08;;;;;;;1.23;1.23;;;13.20;99.90;;;;;;5053367;28;20660;-70
2023/05/05 04:10:33;;;;;;;1.07;1.07;;;13.20;99.90;;;;;;5053673;28;20698;-71
2023/05/05 04:12:59;;;;;;;0.97;0.87;;;13.20;99.90;;;;;;5053655;28;20532;-69
2023/05/05 04:15:24;;;;;;;1.23;1.23;;;13.30;99.90;;;;;;5053311;28;20270;-70
2023/05/05 04:17:50;;;;;;;1.70;1.60;;;13.30;99.90;;;;;;5053531;28;20174;-70
2023/05/05 04:20:16;;;;;;;4.40;1.37;;;13.30;99.90;;;;;;5053559;28;20206;-70
2023/05/05 04:22:41;;;;;;;1.33;1.33;;;13.30;99.90;;;;;;5053396;28;20185;-70
2023/05/05 04:25:07;;;;;;;2.40;1.57;;;13.20;99.90;;;;;;5053414;28;20194;-70
2023/05/05 04:27:33;;;;;;;1.33;1.23;;;13.20;99.90;;;;;;5053139;28;20291;-70
2023/05/05 04:29:59;;;;;;;1.93;1.83;;;13.20;99.90;;;;;;5053285;28;21019;-70
2023/05/05 04:32:24;;;;;;;1.60;1.50;;;13.20;99.90;;;;;;5053289;28;20223;-70
2023/05/05 04:34:51;;;;;;;0.60;0.60;;;13.20;99.90;;;;;;5053146;28;20221;-70
2023/05/05 04:37:17;;;;;;;0.97;0.97;;;13.20;99.90;;;;;;5053137;28;20171;-70
2023/05/05 04:39:43;;;;;;;1.10;1.07;;;13.10;99.90;;;;;;5053311;28;20453;-70
2023/05/05 04:42:09;;;;;;;1.57;1.50;;;13.00;99.90;;;;;;5053136;28;20173;-70
2023/05/05 04:44:35;;;;;;;0.83;0.83;;;13.00;99.90;;;;;;5053196;28;20265;-70
2023/05/05 04:47:00;;;;;;;0.90;0.90;;;13.00;99.90;;;;;;5057062;28;20481;-69
2023/05/05 04:49:29;;;;;;;1.03;0.80;;;13.10;99.90;;;;;;5057300;28;20193;-71
2023/05/05 04:51:54;;;;;;;1.83;1.73;;;13.30;99.90;;;;;;5057190;28;20552;-70
2023/05/05 04:54:20;;;;;;;1.93;1.10;;;13.40;99.90;;;;;;5057042;28;20474;-69
2023/05/05 04:56:46;;;;;;;1.30;1.30;;;13.40;99.90;;;;;;5056917;28;20551;-70
2023/05/05 04:59:15;;;;;;;1.03;1.03;;;13.40;99.90;;;;;;5057083;28;20434;-70
2023/05/05 05:01:41;;;;;;;3.27;2.97;;;13.40;99.90;;;;;;5057407;28;20288;-70
2023/05/05 05:04:07;;;;;;;0.73;0.73;;;13.40;99.90;;;;;;5057098;28;20502;-70
2023/05/05 05:06:33;;;;;;;0.73;0.70;;;13.50;99.90;;;;;;5056902;28;20895;-69
2023/05/05 05:08:59;;;;;;;1.10;0.90;;;13.50;99.90;;;;;;5056960;28;20463;-70
2023/05/05 05:11:25;;;;;;;2.43;1.27;;;13.50;99.90;;;;;;5057014;28;20764;-70
2023/05/05 05:13:51;;;;;;;0.73;0.73;;;13.50;99.90;;;;;;5056903;28;20624;-70
2023/05/05 05:16:17;;;;;;;1.07;0.97;;;13.50;99.90;;;;;;5056746;28;20428;-70
2023/05/05 05:18:43;;;;;;;1.00;1.00;;;13.60;99.90;;;;;;5056699;28;20781;-70
2023/05/05 05:21:09;;;;;;;0.83;0.83;;;13.50;99.90;;;;;;5056873;28;20162;-70
2023/05/05 05:23:34;;;;;;;1.00;0.90;;;13.50;99.90;;;;;;5056598;28;20177;-70
2023/05/05 05:26:00;;;;;;;1.70;1.40;;;13.50;99.90;;;;;;5056560;28;20515;-70
2023/05/05 05:28:26;;;;;;;2.23;2.03;;;13.50;99.90;;;;;;5056347;28;20524;-69
2023/05/05 05:30:52;;;;;;;0.80;0.80;;;13.70;99.90;;;;;;5056745;28;20178;-70
2023/05/05 05:33:18;;;;;;;1.27;1.17;;;13.70;99.90;;;;;;5056640;28;20458;-71
2023/05/05 05:35:44;;;;;;;0.90;0.90;;;13.80;99.90;;;;;;5056312;28;20186;-70
2023/05/05 05:38:10;;;;;;;1.53;1.47;;;13.80;99.90;;;;;;5056268;28;20423;-69
2023/05/05 05:40:36;;;;;;;1.80;1.70;;;13.70;99.90;;;;;;5056352;28;20396;-71
2023/05/05 05:43:02;;;;;;;1.90;1.17;;;13.70;99.90;;;;;;5056272;28;20167;-69
2023/05/05 05:45:27;;;;;;;6.23;1.17;;;13.80;99.90;;;;;;5056306;28;20431;-71
2023/05/05 05:47:53;;;;;;;0.87;0.87;;;13.80;99.90;;;;;;5056259;28;20203;-70
2023/05/05 05:50:19;;;;;;;0.87;0.87;;;13.70;99.90;;;;;;5056106;28;20185;-70
2023/05/05 05:52:45;;;;;;;3.80;1.80;;;13.70;99.90;;;;;;5056039;28;20177;-69
2023/05/05 05:55:10;;;;;;;1.57;1.47;;;13.90;99.90;;;;;;5055904;28;20460;-70
2023/05/05 05:57:36;;;;;;;0.57;0.57;;;14.00;99.90;;;;;;5055457;28;20170;-71
2023/05/05 06:00:02;;;;;;;1.10;1.10;;;14.10;99.90;;;;;;5055919;28;20188;-70
2023/05/05 06:02:28;;;;;;;3.00;1.53;;;14.10;99.90;;;;;;5056080;28;20212;-70
2023/05/05 06:04:54;;;;;;;3.20;1.43;;;13.90;99.90;;;;;;5055921;28;20433;-70
2023/05/05 06:07:20;;;;;;;1.03;0.83;;;14.10;99.90;;;;;;5055793;28;20184;-70
2023/05/05 06:09:45;;;;;;;1.73;1.50;;;14.10;99.90;;;;;;5055810;28;20393;-70
2023/05/05 06:12:11;;;;;;;1.20;1.20;;;14.10;99.90;;;;;;5055767;28;20236;-70
2023/05/05 06:14:37;;;;;;;0.73;0.73;;;14.40;99.90;;;;;;5055764;28;20289;-70
2023/05/05 06:17:02;;;;;;;1.77;1.67;;;14.20;99.90;;;;;;5055452;28;20175;-70
2023/05/05 06:19:28;;;;;;;2.63;2.53;;;14.40;99.90;;;;;;5055575;28;20546;-71
2023/05/05 06:21:54;;;;;;;1.23;1.23;;;14.50;99.90;;;;;;5054514;28;20281;-70
2023/05/05 06:24:19;;;;;;;1.00;1.00;;;14.60;99.90;;;;;;5055486;28;20177;-70
2023/05/05 06:26:45;;;;;;;3.03;2.23;;;14.60;99.90;;;;;;5055473;28;20612;-70
2023/05/05 06:29:10;;;;;;;1.40;1.10;;;14.60;99.90;;;;;;5055426;28;20166;-70
2023/05/05 06:31:36;;;;;;;1.57;1.47;;;14.60;99.90;;;;;;5055502;28;20175;-70
2023/05/05 06:34:02;;;;;;;1.87;1.77;;;14.70;99.90;;;;;;5055418;28;20221;-70
2023/05/05 06:36:27;;;;;;;0.80;0.80;;;14.90;99.90;;;;;;5055298;28;20546;-69
2023/05/05 06:38:53;;;;;;;1.57;1.47;;;15.10;99.90;;;;;;5055066;28;20174;-71
2023/05/05 06:41:18;;;;;;;1.33;1.33;;;15.30;99.90;;;;;;5055259;28;20158;-70
2023/05/05 06:43:45;;;;;;;1.67;1.57;;;15.40;99.90;;;;;;5055229;28;20175;-70
2023/05/05 06:46:11;;;;;;;1.80;1.40;;;15.40;99.90;;;;;;5055090;28;20743;-70
2023/05/05 06:48:36;;;;;;;2.70;2.50;;;15.60;99.90;;;;;;5055130;28;20432;-70
2023/05/05 06:51:02;;;;;;;1.30;1.20;;;15.90;99.90;;;;;;5054880;28;20599;-71
2023/05/05 06:53:28;;;;;;;0.73;0.73;;;16.10;99.80;;;;;;5054924;28;20175;-70
2023/05/05 06:55:54;;;;;;;1.83;1.73;;;16.30;98.90;;;;;;5054289;28;20188;-69
2023/05/05 06:58:20;;;;;;;1.37;1.20;;;16.50;98.50;;;;;;5051991;28;20197;-69
2023/05/05 07:00:46;;;;;;;0.93;0.67;;;16.60;98.40;;;;;;5053701;28;20202;-68
2023/05/05 07:03:11;;;;;;;1.03;0.90;;;16.70;98.10;;;;;;5053665;28;20982;-69
2023/05/05 07:05:37;;;;;;;0.73;0.73;;;16.80;97.40;;;;;;5053581;28;20194;-71
2023/05/05 07:08:03;;;;;;;0.90;0.90;;;16.80;97.30;;;;;;5052584;28;20622;-70
2023/05/05 07:10:28;;;;;;;2.20;1.50;;;16.80;97.50;;;;;;5053492;28;20184;-70
2023/05/05 07:12:54;;;;;;;0.80;0.80;;;16.80;97.60;;;;;;5054502;28;20167;-70
2023/05/05 07:15:21;;;;;;;1.80;1.10;;;16.80;97.60;;;;;;5054953;28;20319;-70
2023/05/05 07:17:47;;;;;;;6.67;1.37;;;16.90;97.30;;;;;;5054666;28;20167;-70
2023/05/05 07:20:12;;;;;;;1.03;0.93;;;17.00;97.10;;;;;;5055093;28;20408;-69
2023/05/05 07:22:38;;;;;;;0.80;0.80;;;17.00;96.90;;;;;;5054812;28;20539;-70
2023/05/05 07:25:05;;;;;;;0.70;0.70;;;17.10;96.70;;;;;;5054273;28;20198;-70
2023/05/05 07:27:31;;;;;;;0.50;0.50;;;17.10;96.60;;;;;;5054227;28;20180;-70
2023/05/05 07:29:57;;;;;;;0.90;0.90;;;17.20;96.50;;;;;;5054430;28;20488;-70
2023/05/05 07:32:23;;;;;;;3.30;1.30;;;17.30;96.50;;;;;;5054453;28;20500;-70
2023/05/05 07:34:49;;;;;;;1.10;1.00;;;18.20;99.90;;;;;;5053512;28;20202;-69
2023/05/05 07:37:14;;;;;;;2.43;1.30;;;17.50;96.50;;;;;;5052482;28;20579;-70
2023/05/05 07:39:40;;;;;;;1.27;0.80;;;17.60;96.30;;;;;;5054425;28;20683;-69
2023/05/05 07:42:06;;;;;;;1.80;1.10;;;17.70;96.20;;;;;;5054182;28;20175;-70
2023/05/05 07:44:32;;;;;;;1.50;1.40;;;17.80;96.10;;;;;;5054108;28;20482;-69
2023/05/05 07:46:58;;;;;;;0.57;0.57;;;18.00;96.30;;;;;;5053743;28;20187;-70
2023/05/05 07:49:25;;;;;;;1.67;1.57;;;18.10;96.00;;;;;;5051511;28;20444;-70
2023/05/05 07:51:51;;;;;;;1.23;1.13;;;18.30;95.80;;;;;;5053426;28;20503;-70
2023/05/05 07:54:17;;;;;;;0.93;0.80;;;18.40;95.40;;;;;;5053466;28;20463;-70
2023/05/05 07:56:43;;;;;;;0.73;0.73;;;18.50;95.20;;;;;;5051551;28;20518;-73
2023/05/05 07:59:11;;;;;;;0.60;0.60;;;18.60;94.50;;;;;;5053001;28;20443;-71
2023/05/05 08:01:37;;;;;;;3.33;0.93;;;18.60;94.30;;;;;;5053222;28;20494;-71
2023/05/05 08:04:03;;;;;;;0.70;0.70;;;18.60;94.30;;;;;;5054290;28;20404;-69
2023/05/05 08:06:30;;;;;;;15.83;1.60;;;18.80;94.20;;;;;;5053574;28;20428;-71
2023/05/05 08:08:56;;;;;;;1.30;1.23;;;19.30;94.10;;;;;;5053509;28;20174;-70
2023/05/05 08:11:22;;;;;;;0.63;0.63;;;20.00;92.80;;;;;;5053573;28;20821;-70
2023/05/05 08:13:47;;;;;;;1.17;1.07;;;20.80;92.00;;;;;;5052092;28;20454;-69
2023/05/05 08:16:14;;;;;;;0.90;0.90;;;21.60;90.30;;;;;;5054094;28;20192;-70
2023/05/05 08:18:40;;;;;;;0.50;0.50;;;22.10;88.20;;;;;;5053245;28;20540;-71
2023/05/05 08:21:07;;;;;;;1.10;1.07;;;22.50;85.60;;;;;;5053543;28;20409;-71
2023/05/05 08:23:33;;;;;;;1.07;1.00;;;23.00;82.80;;;;;;5053623;28;20414;-71
2023/05/05 08:25:59;;;;;;;0.60;0.47;;;23.50;79.40;;;;;;5053757;28;20407;-71
2023/05/05 08:28:25;;;;;;;0.93;0.77;;;24.10;77.00;;;;;;5053305;28;20772;-70
2023/05/05 08:30:51;;;;;;;0.90;0.60;;;24.70;73.50;;;;;;5053448;28;20413;-70
2023/05/05 08:33:17;;;;;;;0.60;0.60;;;25.00;69.70;;;;;;5051726;28;20179;-71
2023/05/05 08:35:43;;;;;;;0.67;0.67;;;25.00;68.80;;;;;;5053223;28;20198;-70
2023/05/05 08:38:10;;;;;;;0.80;0.80;;;24.90;66.80;;;;;;5052168;28;20260;-71
2023/05/05 08:40:37;;;;;;;0.57;0.53;;;24.50;67.30;;;;;;5052565;28;20842;-70
2023/05/05 08:43:03;;;;;;;0.43;0.43;;;24.30;67.00;;;;;;5053486;28;20466;-71
2023/05/05 08:45:29;;;;;;;0.50;0.40;;;24.10;69.10;;;;;;5051876;28;20410;-71
2023/05/05 08:48:04;;;;;;;0.50;0.50;;;24.00;68.30;;;;;;5052045;28;20391;-71
2023/05/05 08:50:31;;;;;;;0.50;0.50;;;24.30;67.30;;;;;;5052855;28;20432;-71
2023/05/05 08:53:09;;;;;;;0.67;0.67;;;24.80;66.50;;;;;;5051472;28;20450;-71
2023/05/05 08:55:49;;;;;;;0.53;0.50;;;25.50;65.30;;;;;;5053027;28;20841;-71
2023/05/05 08:58:16;;;;;;;0.50;0.50;;;26.20;62.70;;;;;;5053051;28;20405;-71
2023/05/05 09:00:44;;;;;;;0.57;0.57;;;27.10;62.70;;;;;;5050959;28;20911;-71
2023/05/05 09:03:10;;;;;;;0.80;0.80;;;27.60;58.20;;;;;;5053241;28;20439;-71
2023/05/05 09:05:36;;;;;;;0.70;0.70;;;27.60;56.60;;;;;;5053101;28;20443;-71
2023/05/05 09:08:05;;;;;;;5.90;1.17;;;28.20;55.40;;;;;;5052845;28;20880;-71
2023/05/05 09:10:32;;;;;;;0.93;0.63;;;28.60;53.90;;;;;;5053557;28;20418;-71
2023/05/05 09:12:58;;;;;;;0.40;0.40;;;28.20;52.60;;;;;;5053127;28;20400;-71
2023/05/05 09:15:23;;;;;;;1.70;0.63;;;28.40;51.90;;;;;;5053146;28;20462;-70
2023/05/05 09:17:49;;;;;;;0.90;0.90;;;28.60;50.80;;;;;;5053020;28;20178;-71
2023/05/05 09:20:15;;;;;;;0.57;0.50;;;29.30;50.50;;;;;;5053266;28;20219;-68
2023/05/05 09:22:45;;;;;;;0.50;0.50;;;30.40;48.10;;;;;;5052971;28;20619;-68
2023/05/05 09:25:13;;;;;;;0.40;0.40;;;31.10;46.90;;;;;;5052833;28;20190;-68
2023/05/05 09:27:44;;;;;;;0.90;0.90;;;31.00;46.00;;;;;;5052685;28;20451;-69
2023/05/05 09:30:15;;;;;;;8.80;0.73;;;30.50;45.50;;;;;;5053139;28;20397;-69
2023/05/05 09:32:46;;;;;;;0.90;0.80;;;30.00;46.60;;;;;;5056503;28;20404;-68
2023/05/05 09:35:11;;;;;;;2.23;1.67;;;30.30;46.90;;;;;;5056727;28;20464;-68
2023/05/05 09:37:37;;;;;;;1.03;0.93;;;30.30;46.40;;;;;;5056248;28;20412;-68
2023/05/05 09:40:04;;;;;;;1.03;0.70;;;30.60;46.60;;;;;;5056863;28;20197;-68
2023/05/05 09:42:30;;;;;;;1.37;0.77;;;30.10;45.60;;;;;;5056573;28;20171;-68
2023/05/05 09:44:56;;;;;;;0.63;0.63;;;29.00;55.90;;;;;;5055766;28;20412;-68
2023/05/05 09:47:33;;;;;;;0.80;0.80;;;29.10;47.10;;;;;;5054593;28;20896;-68
2023/05/05 09:49:59;;;;;;;1.00;0.60;;;29.00;46.70;;;;;;5056315;28;20196;-69
2023/05/05 09:52:24;;;;;;;0.60;0.60;;;28.90;48.00;;;;;;5054777;28;20822;-68
2023/05/05 09:54:56;;;;;;;1.10;1.00;;;29.40;54.50;;;;;;5054796;28;20206;-69
2023/05/05 09:57:26;;;;;;;1.00;0.87;;;29.20;46.60;;;;;;5055335;28;20167;-69
2023/05/05 09:59:56;;;;;;;1.70;1.40;;;29.10;47.30;;;;;;5054404;28;20846;-69
2023/05/05 10:02:30;;;;;;;1.20;1.10;;;29.30;48.00;;;;;;5056010;28;20397;-69
2023/05/05 10:05:11;;;;;;;1.70;1.07;;;27.90;57.90;;;;;;5056025;28;20454;-68
2023/05/05 10:07:37;;;;;;;2.03;1.57;;;27.60;48.50;;;;;;5055636;28;20492;-67
2023/05/05 10:10:05;;;;;;;1.33;1.00;;;27.10;49.40;;;;;;5055636;28;20409;-68
2023/05/05 10:12:34;;;;;;;0.80;0.80;;;26.60;51.00;;;;;;5055925;28;20401;-68
2023/05/05 10:15:01;;;;;;;0.40;0.40;;;26.60;52.70;;;;;;5055765;28;20427;-68
2023/05/05 10:17:31;;;;;;;0.83;0.70;;;26.90;52.50;;;;;;5055420;28;20404;-68
2023/05/05 10:20:00;;;;;;;0.60;0.60;;;27.20;52.10;;;;;;5055563;28;20432;-68
2023/05/05 10:22:29;;;;;;;1.07;0.43;;;27.60;50.30;;;;;;5055719;28;20953;-68
2023/05/05 10:25:14;;;;;;;0.53;0.50;;;27.00;65.50;;;;;;5055621;28;20421;-68
2023/05/05 10:27:45;;;;;;;0.93;0.93;;;26.70;51.90;;;;;;5055299;28;20841;-67
2023/05/05 10:30:16;;;;;;;0.53;0.53;;;26.00;53.00;;;;;;5055742;28;20375;-68
2023/05/05 10:32:53;;;;;;;0.83;0.70;;;25.50;53.90;;;;;;5055610;28;20432;-68
2023/05/05 10:35:25;;;;;;;1.50;1.40;;;24.90;54.90;;;;;;5055164;28;20564;-68
2023/05/05 10:37:51;;;;;;;0.70;0.70;;;24.60;55.70;;;;;;5054675;28;20404;-68
2023/05/05 10:40:19;;;;;;;1.03;1.03;;;24.40;57.30;;;;;;5053716;28;20379;-68
2023/05/05 10:42:47;;;;;;;1.17;1.13;;;24.40;57.70;;;;;;5053137;28;20414;-68
2023/05/05 10:45:12;;;;;;;0.87;0.60;;;24.60;57.80;;;;;;5054479;28;20435;-68
2023/05/05 10:47:39;;;;;;;0.90;0.60;;;24.70;56.90;;;;;;5053085;28;20384;-67
2023/05/05 10:50:07;;;;;;;2.13;1.20;;;24.30;56.70;;;;;;5053890;28;20189;-68
2023/05/05 10:52:42;;;;;;;0.67;0.67;;;24.10;57.40;;;;;;5054214;28;20412;-68
2023/05/05 10:55:29;;;;;;;0.63;0.63;;;23.90;58.00;;;;;;5053062;28;20452;-67
2023/05/05 10:57:54;;;;;;;1.37;0.70;;;23.90;58.20;;;;;;5054773;28;20462;-68
2023/05/05 11:00:38;;;;;;;0.80;0.80;;;24.10;57.60;;;;;;5055081;28;20967;-68
2023/05/05 11:03:16;;;;;;;0.77;0.77;;;24.30;57.60;;;;;;5053308;28;20170;-68
2023/05/05 11:06:06;;;;;;;0.90;0.70;;;24.40;57.50;;;;;;5055110;28;20449;-68
2023/05/05 11:08:35;;;;;;;0.70;0.70;;;24.30;56.60;;;;;;5054963;28;20371;-68
2023/05/05 11:11:02;;;;;;;0.80;0.63;;;24.30;55.70;;;;;;5054723;28;20454;-68
2023/05/05 11:13:27;;;;;;;0.60;0.60;;;24.40;55.40;;;;;;5054490;28;20407;-68
2023/05/05 11:15:54;;;;;;;0.60;0.60;;;24.50;55.50;;;;;;5053167;28;20435;-67
2023/05/05 11:18:43;;;;;;;0.40;0.40;;;24.40;55.90;;;;;;5054050;28;20375;-67
2023/05/05 11:21:16;;;;;;;0.87;0.57;;;24.30;57.20;;;;;;5054537;28;20409;-67
2023/05/05 11:23:47;;;;;;;7.10;0.93;;;24.30;57.10;;;;;;5054608;28;20441;-67
2023/05/05 11:26:13;;;;;;;0.50;0.50;;;24.60;56.40;;;;;;5054380;28;20427;-67
2023/05/05 11:29:05;;;;;;;0.67;0.67;;;24.90;55.10;;;;;;5053717;28;20466;-68
2023/05/05 11:31:31;;;;;;;1.33;0.60;;;24.80;53.90;;;;;;5054004;28;20387;-67
2023/05/05 11:34:25;;;;;;;1.00;0.60;;;24.70;53.80;;;;;;5053862;28;20457;-67
2023/05/05 11:36:55;;;;;;;1.30;0.83;;;24.60;53.50;;;;;;5053962;28;20391;-68
2023/05/05 11:40:06;;;;;;;0.73;0.70;;;24.60;54.10;;;;;;5054110;28;20901;-68
2023/05/05 11:42:32;;;;;;;0.70;0.67;;;24.10;56.10;;;;;;5051076;28;20412;-67
2023/05/05 11:44:58;;;;;;;0.73;0.53;;;24.30;80.30;;;;;;5050653;28;20459;-69
2023/05/05 11:47:27;;;;;;;0.70;0.70;;;24.30;55.90;;;;;;5051663;28;20249;-68
2023/05/05 11:49:54;;;;;;;0.50;0.50;;;24.10;56.20;;;;;;5052892;28;20402;-68
2023/05/05 11:52:22;;;;;;;0.80;0.60;;;23.90;55.90;;;;;;5052995;28;20433;-68
2023/05/05 11:54:48;;;;;;;0.60;0.60;;;23.60;65.70;;;;;;5051503;28;20506;-69
2023/05/05 11:57:18;;;;;;;0.60;0.60;;;23.20;69.10;;;;;;5052466;28;20410;-70
2023/05/05 11:59:56;;;;;;;0.57;0.57;;;23.30;56.90;;;;;;5052664;28;20462;-69
2023/05/05 12:02:23;;;;;;;0.40;0.40;;;23.30;57.90;;;;;;5052575;28;20483;-67
2023/05/05 12:04:49;;;;;;;1.00;0.73;;;23.60;73.80;;;;;;5053971;28;20382;-69
2023/05/05 12:07:16;;;;;;;1.37;1.27;;;23.80;57.00;;;;;;5053575;28;20764;-68
2023/05/05 12:09:46;;;;;;;0.70;0.60;;;23.90;56.50;;;;;;5054002;28;20895;-68
2023/05/05 12:12:13;;;;;;;0.60;0.60;;;23.60;57.20;;;;;;5053878;28;20409;-68
2023/05/05 12:14:51;;;;;;;0.70;0.70;;;23.50;57.60;;;;;;5053657;28;20484;-68
2023/05/05 12:17:22;;;;;;;0.50;0.50;;;23.50;57.50;;;;;;5052261;28;20428;-69
2023/05/05 12:19:49;;;;;;;1.00;1.00;;;23.60;57.20;;;;;;5051923;28;20526;-67
2023/05/05 12:22:33;;;;;;;0.60;0.60;;;23.50;57.10;;;;;;5052480;28;20401;-68
2023/05/05 12:25:06;;;;;;;0.60;0.60;;;23.40;77.20;;;;;;5053297;28;20413;-70
2023/05/05 12:27:34;;;;;;;0.93;0.83;;;23.30;55.70;;;;;;5052676;28;20387;-70
2023/05/05 12:30:14;;;;;;;1.80;1.40;;;23.40;56.00;;;;;;5053206;28;20857;-69
2023/05/05 12:32:40;;;;;;;0.90;0.90;;;23.10;56.50;;;;;;5053492;28;20881;-71
2023/05/05 12:35:08;;;;;;;0.80;0.80;;;22.90;56.90;;;;;;5053495;28;20456;-70
2023/05/05 12:37:35;;;;;;;0.67;0.67;;;22.70;57.40;;;;;;5053130;28;20237;-70
2023/05/05 12:40:01;;;;;;;1.00;0.80;;;22.60;57.30;;;;;;5053296;28;20547;-71
2023/05/05 12:42:27;;;;;;;1.23;0.67;;;22.40;57.30;;;;;;5053287;28;20476;-70
2023/05/05 12:44:52;;;;;;;0.40;0.40;;;22.70;77.00;;;;;;5053195;28;20173;-71
2023/05/05 12:47:31;;;;;;;0.53;0.43;;;22.50;58.80;;;;;;5052858;28;20464;-69
2023/05/05 12:49:59;;;;;;;0.40;0.40;;;22.70;57.60;;;;;;5053085;28;20196;-71
2023/05/05 12:52:42;;;;;;;0.40;0.40;;;22.80;57.80;;;;;;5053152;28;20442;-70